Time;durP1;ratioP1;P1;durP2;ratioP2;P2;SDS_P1;SDS_P2;PMS_P1;PMS_P2;Temp;Humidity;BMP_temperature;BMP_pressure;BME280_temperature;BME280_humidity;BME280_pressure;Samples;Min_cycle;Max_cycle;Signal;HPM_P1;HPM_P2
2023/03/16 00:01:18;;;;;;;10.02;3.65;;;3.50;99.90;;;;;;6246580;22;20012;-79
2023/03/16 00:03:44;;;;;;;9.90;3.83;;;3.50;99.90;;;;;;6244506;23;20047;-79
2023/03/16 00:06:10;;;;;;;7.13;3.63;;;3.40;99.90;;;;;;6246532;22;20020;-79
2023/03/16 00:08:37;;;;;;;7.20;3.10;;;3.40;99.90;;;;;;6244690;23;20034;-79
2023/03/16 00:11:03;;;;;;;6.60;3.03;;;3.40;99.90;;;;;;6244687;23;20020;-79
2023/03/16 00:13:29;;;;;;;9.25;3.60;;;3.50;99.90;;;;;;6246115;23;20062;-79
2023/03/16 00:16:00;;;;;;;7.80;3.30;;;3.40;99.90;;;;;;6244394;23;20020;-79
2023/03/16 00:18:27;;;;;;;7.45;2.95;;;3.40;99.90;;;;;;6246160;22;20440;-79
2023/03/16 00:21:00;;;;;;;8.50;3.10;;;3.50;99.90;;;;;;6244531;23;20047;-79
2023/03/16 00:23:27;;;;;;;6.55;3.33;;;3.50;99.90;;;;;;6244651;23;20008;-79
2023/03/16 00:25:58;;;;;;;7.95;3.17;;;3.40;99.90;;;;;;6244570;23;20109;-79
2023/03/16 00:28:25;;;;;;;8.77;3.30;;;3.50;99.90;;;;;;6269280;22;20123;-79
2023/03/16 00:30:57;;;;;;;9.10;4.47;;;3.50;99.90;;;;;;6277096;22;20023;-79
2023/03/16 00:33:23;;;;;;;6.57;3.35;;;3.50;99.90;;;;;;6277067;22;20011;-79
2023/03/16 00:35:49;;;;;;;8.95;3.90;;;3.50;99.90;;;;;;6249679;22;20075;-79
2023/03/16 00:38:19;;;;;;;18.05;6.28;;;3.50;99.90;;;;;;6249550;22;20023;-79
2023/03/16 00:40:45;;;;;;;7.68;3.20;;;3.50;99.90;;;;;;6249453;22;20019;-79
2023/03/16 00:43:17;;;;;;;8.88;3.40;;;3.50;99.90;;;;;;6249603;22;20026;-79
2023/03/16 00:45:43;;;;;;;7.68;3.47;;;3.60;99.90;;;;;;6249562;22;20431;-79
2023/03/16 00:48:10;;;;;;;7.93;3.55;;;3.60;99.90;;;;;;6249446;22;20012;-79
2023/03/16 00:50:36;;;;;;;8.77;3.70;;;3.60;99.90;;;;;;6249596;22;20015;-79
2023/03/16 00:53:02;;;;;;;5.05;2.92;;;3.60;99.90;;;;;;6249564;22;20015;-79
2023/03/16 00:55:27;;;;;;;6.90;3.42;;;3.60;99.90;;;;;;6249311;22;20058;-79
2023/03/16 00:57:53;;;;;;;6.65;3.03;;;3.60;99.90;;;;;;6276708;22;20012;-79
2023/03/16 01:00:20;;;;;;;5.18;3.17;;;3.70;99.90;;;;;;6249390;22;20012;-79
2023/03/16 01:02:46;;;;;;;8.45;3.42;;;3.70;99.90;;;;;;6249586;22;20039;-79
2023/03/16 01:05:12;;;;;;;7.43;3.00;;;3.70;99.90;;;;;;6276835;22;20012;-79
2023/03/16 01:07:39;;;;;;;5.32;2.90;;;3.80;99.90;;;;;;6249585;22;20019;-79
2023/03/16 01:10:06;;;;;;;6.40;3.20;;;3.80;99.90;;;;;;6249207;22;20065;-79
2023/03/16 01:12:32;;;;;;;5.57;2.88;;;3.90;99.90;;;;;;6276548;22;20015;-79
2023/03/16 01:14:59;;;;;;;7.10;3.55;;;3.90;99.90;;;;;;6250328;22;20015;-79
2023/03/16 01:17:25;;;;;;;6.65;2.60;;;3.90;99.90;;;;;;6251288;22;20015;-79
2023/03/16 01:19:51;;;;;;;7.57;3.03;;;3.90;99.90;;;;;;6251039;22;20565;-79
2023/03/16 01:22:17;;;;;;;7.18;3.00;;;3.90;99.90;;;;;;6251190;22;20015;-79
2023/03/16 01:24:46;;;;;;;7.35;3.22;;;3.90;99.90;;;;;;6278599;22;20019;-79
2023/03/16 01:27:13;;;;;;;6.60;3.08;;;3.90;99.90;;;;;;6277998;22;20343;-79
2023/03/16 01:29:42;;;;;;;7.90;3.05;;;4.00;99.90;;;;;;6251225;22;20024;-79
2023/03/16 01:32:08;;;;;;;4.65;2.97;;;4.00;99.90;;;;;;6251276;22;20026;-79
2023/03/16 01:34:34;;;;;;;5.00;2.88;;;4.00;99.90;;;;;;6251078;22;20016;-79
2023/03/16 01:37:00;;;;;;;7.22;3.60;;;4.00;99.90;;;;;;6251074;22;20022;-79
2023/03/16 01:39:26;;;;;;;6.95;2.88;;;3.90;99.90;;;;;;6278720;22;20012;-79
2023/03/16 01:41:52;;;;;;;6.28;3.22;;;3.90;99.90;;;;;;6251167;22;20020;-79
2023/03/16 01:44:29;;;;;;;5.57;3.17;;;4.00;99.90;;;;;;6278458;22;20073;-79
2023/03/16 01:46:55;;;;;;;4.10;2.70;;;4.00;99.90;;;;;;6278103;22;20382;-79
2023/03/16 01:49:22;;;;;;;6.53;3.15;;;4.00;99.90;;;;;;6250963;22;20034;-79
2023/03/16 01:52:17;;;;;;;5.30;3.10;;;4.00;99.90;;;;;;6278441;22;20020;-80
2023/03/16 01:54:47;;;;;;;8.18;3.72;;;4.00;99.90;;;;;;6278465;22;20008;-79
2023/03/16 01:57:22;;;;;;;7.38;3.30;;;4.00;99.90;;;;;;6278337;22;20120;-79
2023/03/16 01:59:55;;;;;;;6.60;3.53;;;4.00;99.90;;;;;;6250746;22;20020;-80
2023/03/16 02:02:24;;;;;;;6.28;3.40;;;4.00;99.90;;;;;;6250961;22;20024;-80
2023/03/16 02:05:01;;;;;;;4.88;3.20;;;4.00;99.90;;;;;;6250807;22;20022;-79
2023/03/16 02:07:30;;;;;;;10.85;3.65;;;4.00;99.90;;;;;;6278108;22;20061;-79
2023/03/16 02:09:58;;;;;;;6.10;3.67;;;4.00;99.90;;;;;;6250860;22;20019;-79
2023/03/16 02:12:24;;;;;;;5.68;3.50;;;4.00;99.90;;;;;;6250766;22;20455;-79
2023/03/16 02:14:50;;;;;;;7.13;3.35;;;3.90;99.90;;;;;;6250716;22;20023;-79
2023/03/16 02:17:20;;;;;;;7.82;3.50;;;4.00;99.90;;;;;;6250745;22;20364;-79
2023/03/16 02:20:10;;;;;;;8.25;3.15;;;3.90;99.90;;;;;;6278016;22;20016;-79
2023/03/16 02:22:46;;;;;;;7.18;3.33;;;3.90;99.90;;;;;;6277765;22;20382;-79
2023/03/16 02:25:15;;;;;;;6.60;3.25;;;3.90;99.90;;;;;;6250606;22;20471;-79
2023/03/16 02:28:02;;;;;;;5.97;3.67;;;3.90;99.90;;;;;;6250379;22;20047;-79
2023/03/16 02:30:28;;;;;;;5.70;3.53;;;3.90;99.90;;;;;;6250630;22;20094;-79
2023/03/16 02:32:54;;;;;;;5.82;3.60;;;3.90;99.90;;;;;;6250640;22;20061;-79
2023/03/16 02:35:20;;;;;;;5.82;3.20;;;3.90;99.90;;;;;;6250625;22;20016;-79
2023/03/16 02:37:46;;;;;;;7.20;3.83;;;3.90;99.90;;;;;;6250315;22;20011;-79
2023/03/16 02:40:32;;;;;;;5.85;3.47;;;3.90;99.90;;;;;;6277835;22;20019;-79
2023/03/16 02:43:01;;;;;;;7.78;3.63;;;3.90;99.90;;;;;;6277970;22;20016;-79
2023/03/16 02:45:43;;;;;;;10.07;3.63;;;3.90;99.90;;;;;;6250340;22;20012;-79
2023/03/16 02:48:15;;;;;;;6.15;3.60;;;3.90;99.90;;;;;;6250457;22;20019;-79
2023/03/16 02:50:46;;;;;;;6.45;3.50;;;3.90;99.90;;;;;;6277898;22;20019;-79
2023/03/16 02:53:12;;;;;;;5.78;3.53;;;3.90;99.90;;;;;;6250390;22;20058;-79
2023/03/16 02:55:38;;;;;;;7.85;4.13;;;4.00;99.90;;;;;;6250194;22;20455;-79
2023/03/16 02:58:04;;;;;;;7.30;3.58;;;4.00;99.90;;;;;;6250081;22;20022;-79
2023/03/16 03:00:29;;;;;;;6.05;3.63;;;4.00;99.90;;;;;;6250226;22;20102;-79
2023/03/16 03:02:55;;;;;;;7.65;3.90;;;4.00;99.90;;;;;;6250366;22;20039;-79
2023/03/16 03:05:21;;;;;;;6.78;4.22;;;4.00;99.90;;;;;;6277692;22;20050;-79
2023/03/16 03:07:46;;;;;;;7.90;4.00;;;4.00;99.90;;;;;;6250220;22;20012;-79
2023/03/16 03:10:12;;;;;;;8.75;3.92;;;3.90;99.90;;;;;;6250286;22;20019;-79
2023/03/16 03:12:38;;;;;;;7.38;4.25;;;4.00;99.90;;;;;;6250189;22;20082;-79
2023/03/16 03:15:05;;;;;;;6.07;4.18;;;3.90;99.90;;;;;;6277592;22;20016;-79
2023/03/16 03:17:30;;;;;;;7.43;4.97;;;3.90;99.90;;;;;;6250119;22;20058;-79
2023/03/16 03:19:58;;;;;;;9.60;4.25;;;3.90;99.90;;;;;;6249905;22;20023;-79
2023/03/16 03:22:25;;;;;;;7.35;4.28;;;3.90;99.90;;;;;;6250076;22;20404;-79
2023/03/16 03:24:51;;;;;;;10.25;4.55;;;4.00;99.90;;;;;;6250070;22;20072;-79
2023/03/16 03:27:18;;;;;;;8.80;4.70;;;4.00;99.90;;;;;;6277120;22;20015;-79
2023/03/16 03:29:44;;;;;;;8.30;4.90;;;3.90;99.90;;;;;;6248887;22;20020;-79
2023/03/16 03:32:10;;;;;;;8.30;4.72;;;4.00;99.90;;;;;;6277494;22;20050;-79
2023/03/16 03:34:36;;;;;;;10.27;4.20;;;4.00;99.90;;;;;;6277307;22;20034;-79
2023/03/16 03:37:02;;;;;;;8.48;4.70;;;4.00;99.90;;;;;;6249653;22;20065;-79
2023/03/16 03:39:28;;;;;;;8.95;4.28;;;4.00;99.90;;;;;;6249792;22;20348;-79
2023/03/16 03:41:53;;;;;;;9.80;4.47;;;4.00;99.90;;;;;;6277282;22;20023;-79
2023/03/16 03:44:23;;;;;;;10.10;4.88;;;4.00;99.90;;;;;;6277615;22;20019;-79
2023/03/16 03:46:50;;;;;;;8.25;4.43;;;4.00;99.90;;;;;;6249975;22;20451;-79
2023/03/16 03:49:16;;;;;;;10.43;5.45;;;4.00;99.90;;;;;;6249859;22;20062;-79
2023/03/16 03:51:41;;;;;;;6.93;4.65;;;4.00;99.90;;;;;;6249686;22;20028;-79
2023/03/16 03:54:08;;;;;;;11.45;5.53;;;4.00;99.90;;;;;;6249864;22;20020;-79
2023/03/16 03:56:33;;;;;;;8.77;5.25;;;4.00;99.90;;;;;;6249812;22;20020;-79
2023/03/16 03:58:59;;;;;;;9.20;5.20;;;4.00;99.90;;;;;;6276832;22;20016;-79
2023/03/16 04:01:24;;;;;;;10.93;5.60;;;4.00;99.90;;;;;;6277127;22;20016;-79
2023/03/16 04:03:50;;;;;;;10.65;5.60;;;4.00;99.90;;;;;;6249836;22;20019;-79
2023/03/16 04:06:16;;;;;;;9.63;5.18;;;4.00;99.90;;;;;;6249582;22;20019;-79
2023/03/16 04:08:41;;;;;;;9.23;4.82;;;4.00;99.90;;;;;;6249865;22;20011;-79
2023/03/16 04:11:07;;;;;;;9.13;6.10;;;4.10;99.90;;;;;;6249552;22;20440;-79
2023/03/16 04:13:33;;;;;;;11.70;6.13;;;4.00;99.90;;;;;;6277240;22;20019;-79
2023/03/16 04:16:02;;;;;;;9.13;6.07;;;4.00;99.90;;;;;;6249776;22;20324;-79
2023/03/16 04:18:37;;;;;;;10.52;5.80;;;4.00;99.90;;;;;;6277197;22;20008;-79
2023/03/16 04:21:03;;;;;;;9.25;5.50;;;4.10;99.90;;;;;;6277107;22;20016;-79
2023/03/16 04:23:32;;;;;;;11.07;6.45;;;4.10;99.90;;;;;;6249620;22;20069;-79
2023/03/16 04:25:58;;;;;;;10.63;6.15;;;4.10;99.90;;;;;;6277105;22;20015;-79
2023/03/16 04:28:25;;;;;;;12.57;7.00;;;4.10;99.90;;;;;;6249257;22;20070;-79
2023/03/16 04:30:55;;;;;;;11.55;6.50;;;4.10;99.90;;;;;;6249451;22;20023;-79
2023/03/16 04:33:21;;;;;;;10.95;6.50;;;4.10;99.90;;;;;;6249541;22;20432;-79
2023/03/16 04:35:47;;;;;;;11.73;6.47;;;4.10;99.90;;;;;;6249287;22;20012;-79
2023/03/16 04:38:13;;;;;;;12.55;6.82;;;4.10;99.90;;;;;;6276919;22;20090;-79
2023/03/16 04:40:39;;;;;;;11.38;7.30;;;4.20;99.90;;;;;;6276982;22;20039;-79
2023/03/16 04:43:05;;;;;;;10.60;6.50;;;4.10;99.90;;;;;;6249518;22;20023;-79
2023/03/16 04:45:31;;;;;;;9.45;6.07;;;4.10;99.90;;;;;;6249674;22;20099;-79
2023/03/16 04:47:57;;;;;;;11.85;7.22;;;4.20;99.90;;;;;;6276618;22;20095;-79
2023/03/16 04:50:22;;;;;;;11.80;7.20;;;4.10;99.90;;;;;;6278227;22;20043;-79
2023/03/16 04:52:48;;;;;;;13.00;7.40;;;4.10;99.90;;;;;;6251205;22;20016;-79
2023/03/16 04:55:16;;;;;;;13.63;7.57;;;4.10;99.90;;;;;;6251547;22;20019;-79
2023/03/16 04:57:42;;;;;;;10.82;7.57;;;4.20;99.90;;;;;;6278869;22;20015;-79
2023/03/16 05:00:19;;;;;;;11.75;7.93;;;4.20;99.90;;;;;;6251248;22;20510;-79
2023/03/16 05:02:48;;;;;;;9.38;7.22;;;4.20;99.90;;;;;;6251444;22;20019;-79
2023/03/16 05:05:14;;;;;;;11.80;7.55;;;4.20;99.90;;;;;;6278238;22;20327;-79
2023/03/16 05:07:40;;;;;;;12.18;7.03;;;4.20;99.90;;;;;;6251436;22;20016;-79
2023/03/16 05:10:08;;;;;;;10.70;7.22;;;4.20;99.90;;;;;;6251472;22;20020;-79
2023/03/16 05:12:34;;;;;;;11.57;7.70;;;4.20;99.90;;;;;;6251852;22;20015;-79
2023/03/16 05:14:59;;;;;;;11.77;7.60;;;4.20;99.90;;;;;;6251447;22;20031;-80
2023/03/16 05:17:25;;;;;;;15.35;8.63;;;4.20;99.90;;;;;;6278388;22;20012;-80
2023/03/16 05:19:51;;;;;;;12.63;8.30;;;4.20;99.90;;;;;;6251142;22;20015;-79
2023/03/16 05:22:16;;;;;;;12.95;8.63;;;4.20;99.90;;;;;;6278958;22;20020;-79
2023/03/16 05:24:42;;;;;;;14.77;8.77;;;4.20;99.90;;;;;;6278691;22;20023;-80
2023/03/16 05:27:08;;;;;;;15.40;9.05;;;4.20;99.90;;;;;;6278358;22;20023;-80
2023/03/16 05:29:33;;;;;;;18.33;9.13;;;4.20;99.90;;;;;;6278249;22;20035;-80
2023/03/16 05:31:59;;;;;;;17.67;9.32;;;4.20;99.90;;;;;;6251538;22;20043;-79
2023/03/16 05:34:27;;;;;;;12.30;8.48;;;4.20;99.90;;;;;;6251085;22;20098;-79
2023/03/16 05:36:53;;;;;;;12.43;8.15;;;4.10;99.90;;;;;;6251074;22;20043;-79
2023/03/16 05:39:18;;;;;;;14.50;8.32;;;4.10;99.90;;;;;;6251118;22;20022;-79
2023/03/16 05:41:44;;;;;;;12.13;8.27;;;4.10;99.90;;;;;;6250930;22;20463;-79
2023/03/16 05:44:10;;;;;;;13.35;8.18;;;4.10;99.90;;;;;;6251058;22;20015;-80
2023/03/16 05:46:35;;;;;;;12.38;8.25;;;4.10;99.90;;;;;;6278194;22;20016;-79
2023/03/16 05:49:04;;;;;;;13.30;8.90;;;4.00;99.90;;;;;;6250809;22;20007;-80
2023/03/16 05:51:29;;;;;;;12.43;7.95;;;4.00;99.90;;;;;;6251044;22;20007;-79
2023/03/16 05:53:55;;;;;;;14.20;8.45;;;4.00;99.90;;;;;;6251841;22;20101;-80
2023/03/16 05:56:23;;;;;;;11.82;7.72;;;4.00;99.90;;;;;;6250699;22;20020;-80
2023/03/16 05:58:53;;;;;;;13.43;8.57;;;4.00;99.90;;;;;;6277108;22;20046;-79
2023/03/16 06:01:19;;;;;;;14.85;8.93;;;3.90;99.90;;;;;;6277739;22;20016;-80
2023/03/16 06:03:47;;;;;;;12.45;8.20;;;3.90;99.90;;;;;;6278237;22;20016;-80
2023/03/16 06:06:15;;;;;;;12.27;7.90;;;3.90;99.90;;;;;;6250846;22;20012;-80
2023/03/16 06:08:41;;;;;;;11.93;8.50;;;3.90;99.90;;;;;;6250705;22;20119;-80
2023/03/16 06:11:11;;;;;;;12.75;8.60;;;3.90;99.90;;;;;;6278040;22;20347;-80
2023/03/16 06:13:38;;;;;;;13.07;8.68;;;3.90;99.90;;;;;;6250369;22;20050;-80
2023/03/16 06:16:05;;;;;;;13.30;8.55;;;3.90;99.90;;;;;;6250319;22;20343;-80
2023/03/16 06:18:31;;;;;;;14.13;8.85;;;3.90;99.90;;;;;;6250926;22;20359;-80
2023/03/16 06:20:57;;;;;;;11.20;7.80;;;3.90;99.90;;;;;;6250558;22;20047;-80
2023/03/16 06:23:26;;;;;;;11.93;7.95;;;3.90;99.90;;;;;;6250698;22;20012;-80
2023/03/16 06:25:55;;;;;;;14.93;8.60;;;3.90;99.90;;;;;;6250523;22;20236;-80
2023/03/16 06:28:21;;;;;;;12.70;8.40;;;3.90;99.90;;;;;;6250502;22;20088;-80
2023/03/16 06:30:52;;;;;;;11.75;8.30;;;3.80;99.90;;;;;;6250415;22;20026;-80
2023/03/16 06:33:17;;;;;;;11.07;7.78;;;3.90;99.90;;;;;;6250249;22;20019;-79
2023/03/16 06:35:43;;;;;;;12.48;7.80;;;3.90;99.90;;;;;;6250283;22;20023;-80
2023/03/16 06:38:08;;;;;;;12.13;7.43;;;3.90;99.90;;;;;;6250533;22;20340;-80
2023/03/16 06:40:34;;;;;;;13.93;8.43;;;3.90;99.90;;;;;;6250374;22;20019;-80
2023/03/16 06:43:00;;;;;;;11.05;7.22;;;4.00;99.90;;;;;;6250199;22;20016;-80
2023/03/16 06:45:26;;;;;;;14.65;8.13;;;4.00;99.90;;;;;;6250129;22;20022;-80
2023/03/16 06:47:52;;;;;;;12.98;7.30;;;4.00;99.90;;;;;;6250496;22;20015;-80
2023/03/16 06:50:17;;;;;;;8.82;5.95;;;4.00;99.90;;;;;;6250304;22;20099;-80
2023/03/16 06:52:43;;;;;;;10.88;6.70;;;4.00;99.90;;;;;;6250352;22;20045;-80
2023/03/16 06:55:11;;;;;;;13.77;7.60;;;4.10;99.90;;;;;;6250330;22;20008;-80
2023/03/16 06:57:36;;;;;;;14.35;7.55;;;4.10;99.90;;;;;;6250250;22;20026;-80
2023/03/16 07:00:03;;;;;;;9.50;6.82;;;4.20;99.90;;;;;;6250192;22;20015;-80
2023/03/16 07:02:29;;;;;;;11.95;7.03;;;4.20;99.90;;;;;;6277320;22;20462;-80
2023/03/16 07:04:54;;;;;;;12.73;7.55;;;4.20;99.90;;;;;;6250223;22;20016;-80
2023/03/16 07:07:20;;;;;;;10.15;7.05;;;4.20;99.90;;;;;;6250104;22;20026;-80
2023/03/16 07:09:46;;;;;;;12.15;6.78;;;4.30;99.90;;;;;;6250089;22;20007;-80
2023/03/16 07:12:12;;;;;;;11.63;6.72;;;4.30;99.90;;;;;;6249790;22;20015;-80
2023/03/16 07:14:38;;;;;;;12.48;7.20;;;4.30;99.90;;;;;;6277299;22;20347;-80
2023/03/16 07:17:04;;;;;;;12.20;6.55;;;4.30;99.90;;;;;;6250814;22;20051;-80
2023/03/16 07:19:30;;;;;;;9.82;6.53;;;4.40;99.90;;;;;;6250163;22;20020;-80
2023/03/16 07:21:55;;;;;;;11.52;7.57;;;4.40;99.90;;;;;;6250143;22;20027;-80
2023/03/16 07:24:21;;;;;;;11.73;6.45;;;4.30;99.90;;;;;;6250173;22;20015;-80
2023/03/16 07:26:49;;;;;;;10.07;5.63;;;4.30;99.90;;;;;;6277172;22;20022;-81
2023/03/16 07:29:16;;;;;;;10.95;5.88;;;4.40;99.90;;;;;;6277452;22;20016;-80
2023/03/16 07:31:42;;;;;;;9.38;6.57;;;4.40;99.90;;;;;;6250064;22;20012;-80
2023/03/16 07:34:07;;;;;;;11.93;6.75;;;4.40;99.90;;;;;;6249972;22;20099;-80
2023/03/16 07:36:33;;;;;;;11.43;6.82;;;4.40;99.90;;;;;;6277390;22;20102;-80
2023/03/16 07:38:59;;;;;;;10.15;6.38;;;4.40;99.90;;;;;;6249878;22;20066;-80
2023/03/16 07:41:24;;;;;;;11.25;5.93;;;4.40;99.90;;;;;;6276907;22;20070;-80
2023/03/16 07:43:51;;;;;;;10.75;6.25;;;4.40;99.90;;;;;;6276978;22;20094;-79
2023/03/16 07:46:16;;;;;;;11.35;6.18;;;4.50;99.90;;;;;;6249851;22;20023;-80
2023/03/16 07:48:43;;;;;;;11.43;6.63;;;4.50;99.90;;;;;;6249983;22;20020;-79
2023/03/16 07:51:13;;;;;;;13.50;6.72;;;4.50;99.90;;;;;;6249907;22;20348;-79
2023/03/16 07:53:39;;;;;;;12.35;5.97;;;4.60;99.90;;;;;;6249744;22;20343;-79
2023/03/16 07:56:05;;;;;;;13.43;6.72;;;4.60;99.90;;;;;;6249732;22;20019;-80
2023/03/16 07:58:31;;;;;;;15.00;6.93;;;4.60;99.90;;;;;;6250024;22;20012;-81
2023/03/16 08:00:58;;;;;;;12.00;7.68;;;4.60;99.90;;;;;;6249695;22;20328;-80
2023/03/16 08:03:29;;;;;;;10.75;6.50;;;4.60;99.90;;;;;;6248609;22;20396;-80
2023/03/16 08:05:55;;;;;;;11.95;6.57;;;4.70;99.90;;;;;;6277089;22;20015;-80
2023/03/16 08:08:21;;;;;;;14.10;6.38;;;4.70;99.90;;;;;;6276986;22;20335;-80
2023/03/16 08:10:53;;;;;;;12.80;6.80;;;4.70;99.90;;;;;;6249753;22;20015;-81
2023/03/16 08:13:21;;;;;;;12.32;5.88;;;4.70;99.90;;;;;;6249449;22;20317;-80
2023/03/16 08:16:00;;;;;;;10.00;5.20;;;4.70;99.90;;;;;;6249848;22;20020;-81
2023/03/16 08:18:28;;;;;;;11.95;6.47;;;4.80;99.90;;;;;;6249677;22;20039;-81
2023/03/16 08:20:55;;;;;;;9.07;5.15;;;4.80;99.90;;;;;;6249387;22;20023;-81
2023/03/16 08:23:22;;;;;;;10.93;5.55;;;4.80;99.90;;;;;;6276970;22;20574;-89
2023/03/16 08:25:52;;;;;;;13.48;6.13;;;4.80;99.90;;;;;;6251426;22;20452;-86
2023/03/16 08:28:20;;;;;;;10.98;5.82;;;4.80;99.90;;;;;;6245641;23;20012;-86
2023/03/16 08:30:54;;;;;;;10.93;6.07;;;4.80;99.90;;;;;;6272094;22;20024;-84
2023/03/16 08:33:20;;;;;;;10.82;6.90;;;4.80;99.90;;;;;;6246547;23;20008;-85
2023/03/16 08:35:46;;;;;;;7.75;5.10;;;4.80;99.90;;;;;;6248112;22;20031;-80
2023/03/16 08:38:15;;;;;;;11.20;6.18;;;4.80;99.90;;;;;;6248317;22;20066;-81
2023/03/16 08:40:47;;;;;;;10.32;6.32;;;4.80;99.90;;;;;;6246686;23;20020;-81
2023/03/16 08:43:16;;;;;;;9.43;5.90;;;4.80;99.90;;;;;;6246548;23;20020;-81
2023/03/16 08:45:47;;;;;;;10.18;5.43;;;4.80;99.90;;;;;;6246328;23;20246;-80
2023/03/16 08:48:13;;;;;;;12.05;5.30;;;4.80;99.90;;;;;;6246668;23;20024;-85
2023/03/16 08:50:45;;;;;;;9.43;6.00;;;4.90;99.90;;;;;;6246034;23;20055;-82
2023/03/16 08:53:13;;;;;;;10.77;5.38;;;4.90;99.90;;;;;;6246386;23;20070;-82
2023/03/16 08:55:43;;;;;;;9.45;5.93;;;4.90;99.90;;;;;;6246208;23;20451;-83
2023/03/16 08:58:10;;;;;;;7.95;5.22;;;4.80;99.90;;;;;;6246321;23;20048;-83
2023/03/16 09:00:37;;;;;;;11.68;6.20;;;4.80;99.90;;;;;;6245981;23;20027;-83
2023/03/16 09:03:03;;;;;;;10.40;5.13;;;4.80;99.90;;;;;;6246109;23;20495;-84
2023/03/16 09:05:30;;;;;;;9.52;6.05;;;4.90;99.90;;;;;;6246235;23;20055;-85
2023/03/16 09:07:55;;;;;;;13.70;4.90;;;4.80;99.90;;;;;;6246215;23;20091;-85
2023/03/16 09:10:21;;;;;;;8.90;5.10;;;4.90;99.90;;;;;;6246041;23;20050;-85
2023/03/16 09:12:51;;;;;;;8.30;5.30;;;4.90;99.90;;;;;;6246128;23;20016;-85
2023/03/16 09:15:19;;;;;;;8.05;4.82;;;4.90;99.90;;;;;;6245951;23;20016;-86
2023/03/16 09:17:46;;;;;;;10.05;5.57;;;4.90;99.90;;;;;;6245973;23;20027;-86
2023/03/16 09:20:14;;;;;;;9.77;5.35;;;4.90;99.90;;;;;;6245949;23;20012;-86
2023/03/16 09:22:40;;;;;;;9.82;5.65;;;4.90;99.90;;;;;;6246059;23;20020;-86
2023/03/16 09:25:09;;;;;;;10.65;5.97;;;4.90;99.90;;;;;;6246447;23;20014;-85
2023/03/16 09:27:37;;;;;;;10.07;5.82;;;4.90;99.90;;;;;;6245637;23;20012;-85
2023/03/16 09:30:04;;;;;;;11.75;5.97;;;4.80;99.90;;;;;;6245906;23;20077;-86
2023/03/16 09:32:33;;;;;;;10.48;5.85;;;4.90;99.90;;;;;;6244754;23;20393;-86
2023/03/16 09:34:59;;;;;;;14.35;5.65;;;4.90;99.90;;;;;;6245601;23;20070;-84
2023/03/16 09:37:26;;;;;;;8.50;4.63;;;5.00;99.90;;;;;;6247394;23;20016;-86
2023/03/16 09:39:51;;;;;;;7.82;4.78;;;5.00;99.90;;;;;;6245688;23;20507;-85
2023/03/16 09:42:26;;;;;;;9.10;5.07;;;5.00;99.90;;;;;;6245698;23;20105;-85
2023/03/16 09:45:10;;;;;;;10.90;6.05;;;5.10;99.90;;;;;;6245881;23;20016;-85
2023/03/16 09:47:37;;;;;;;8.88;5.18;;;5.20;99.90;;;;;;6245842;23;20016;-85
2023/03/16 09:50:07;;;;;;;10.50;5.00;;;5.20;99.90;;;;;;6246380;23;20023;-86
2023/03/16 09:53:00;;;;;;;11.18;5.80;;;5.20;99.90;;;;;;6245908;23;20441;-85
2023/03/16 09:55:33;;;;;;;8.70;4.82;;;5.30;99.90;;;;;;6246056;23;20424;-86
2023/03/16 09:58:00;;;;;;;10.82;4.80;;;5.30;99.90;;;;;;6246227;23;20031;-86
2023/03/16 10:00:30;;;;;;;10.10;5.90;;;5.20;99.90;;;;;;6245612;23;20016;-85
2023/03/16 10:03:21;;;;;;;11.60;6.20;;;5.30;99.90;;;;;;6245879;23;20395;-84
2023/03/16 10:05:56;;;;;;;9.27;5.38;;;5.40;99.90;;;;;;6245643;23;20008;-84
2023/03/16 10:08:36;;;;;;;12.48;5.53;;;5.40;99.90;;;;;;6245619;23;20016;-84
2023/03/16 10:11:35;;;;;;;10.40;4.88;;;5.50;99.90;;;;;;6247173;22;20066;-84
2023/03/16 10:14:17;;;;;;;9.73;5.68;;;5.50;99.90;;;;;;6218620;23;20109;-84
2023/03/16 10:16:51;;;;;;;9.70;5.60;;;5.50;99.90;;;;;;6245590;23;20020;-84
2023/03/16 10:19:29;;;;;;;11.02;5.35;;;5.50;99.90;;;;;;6247391;22;20012;-82
2023/03/16 10:21:58;;;;;;;12.65;5.30;;;5.50;99.90;;;;;;6245287;23;20020;-83
2023/03/16 10:24:41;;;;;;;8.40;4.63;;;5.50;99.90;;;;;;6245360;23;20051;-82
2023/03/16 10:27:19;;;;;;;10.30;5.53;;;5.60;99.90;;;;;;6249936;22;20024;-83
2023/03/16 10:29:49;;;;;;;9.10;5.15;;;5.60;99.90;;;;;;6250781;22;20019;-83
2023/03/16 10:32:18;;;;;;;8.13;5.18;;;5.60;99.90;;;;;;6250549;22;20016;-83
2023/03/16 10:34:51;;;;;;;8.55;4.75;;;5.60;99.90;;;;;;6250666;22;20020;-82
2023/03/16 10:37:17;;;;;;;9.50;4.97;;;5.60;99.90;;;;;;6278119;22;20026;-86
2023/03/16 10:39:42;;;;;;;12.07;5.22;;;5.60;99.90;;;;;;6251422;22;20012;-86
2023/03/16 10:42:20;;;;;;;8.40;4.93;;;5.60;99.90;;;;;;6277827;22;20026;-83
2023/03/16 10:44:46;;;;;;;10.07;5.65;;;5.50;99.90;;;;;;6277928;22;20091;-85
2023/03/16 10:47:32;;;;;;;9.38;4.88;;;5.50;99.90;;;;;;6277862;22;20015;-86
2023/03/16 10:50:10;;;;;;;6.47;3.88;;;5.60;99.90;;;;;;6250600;22;20019;-84
2023/03/16 10:52:45;;;;;;;13.30;5.55;;;5.60;99.90;;;;;;6277653;22;20102;-83
2023/03/16 10:55:27;;;;;;;7.90;4.88;;;5.60;99.90;;;;;;6250460;22;20066;-83
2023/03/16 10:57:55;;;;;;;11.13;5.32;;;5.60;99.90;;;;;;6250411;22;20452;-85
2023/03/16 11:00:27;;;;;;;8.65;5.15;;;5.60;99.90;;;;;;6250453;22;20016;-86
2023/03/16 11:02:55;;;;;;;9.70;5.40;;;5.60;99.90;;;;;;6250538;22;20027;-85
2023/03/16 11:05:33;;;;;;;12.52;4.70;;;5.60;99.90;;;;;;6277604;22;20015;-79
2023/03/16 11:08:01;;;;;;;12.57;5.85;;;5.60;99.90;;;;;;6250252;22;20454;-83
2023/03/16 11:10:35;;;;;;;9.07;4.95;;;5.60;99.90;;;;;;6250264;22;20089;-83
2023/03/16 11:13:18;;;;;;;11.15;5.65;;;5.70;99.90;;;;;;6277771;22;20516;-84
2023/03/16 11:16:00;;;;;;;10.25;4.97;;;5.70;99.90;;;;;;6277375;22;20012;-90
2023/03/16 11:18:41;;;;;;;11.88;5.82;;;5.70;99.90;;;;;;6277418;22;20026;-85
2023/03/16 11:21:25;;;;;;;9.55;5.20;;;5.80;99.90;;;;;;6277164;22;20066;-82
2023/03/16 11:23:54;;;;;;;9.15;5.00;;;5.90;99.90;;;;;;6250295;22;20117;-82
2023/03/16 11:26:28;;;;;;;9.05;4.57;;;5.90;99.90;;;;;;6277162;22;20385;-81
2023/03/16 11:29:02;;;;;;;9.50;4.88;;;6.00;99.90;;;;;;6277004;22;20020;-86
2023/03/16 11:31:49;;;;;;;11.40;4.80;;;6.00;99.90;;;;;;6250117;22;20027;-87
2023/03/16 11:34:18;;;;;;;9.48;4.40;;;6.10;99.90;;;;;;6250160;22;20012;-82
2023/03/16 11:37:12;;;;;;;8.02;5.15;;;6.20;99.90;;;;;;6250088;22;20012;-82
2023/03/16 11:40:14;;;;;;;9.82;4.38;;;6.20;99.90;;;;;;6250092;22;20016;-87
2023/03/16 11:43:05;;;;;;;12.50;4.95;;;6.30;99.90;;;;;;6249878;22;20058;-85
2023/03/16 11:45:47;;;;;;;7.07;4.20;;;6.30;99.90;;;;;;6233911;22;20081;-82
2023/03/16 11:48:31;;;;;;;9.57;4.95;;;6.40;99.90;;;;;;6250166;22;20020;-83
2023/03/16 11:50:59;;;;;;;8.68;4.28;;;6.40;99.90;;;;;;6249855;22;20046;-81
2023/03/16 11:53:31;;;;;;;8.90;4.43;;;6.40;99.90;;;;;;6277473;22;20016;-88
2023/03/16 11:56:23;;;;;;;10.65;4.00;;;6.40;99.90;;;;;;6277113;22;20019;-87
2023/03/16 11:59:34;;;;;;;9.80;4.28;;;6.50;99.90;;;;;;6276914;22;20467;-81
2023/03/16 12:02:27;;;;;;;9.27;5.07;;;6.50;99.90;;;;;;6277164;22;20082;-80
2023/03/16 12:05:05;;;;;;;12.32;4.93;;;6.60;99.90;;;;;;6249906;22;20061;-81
2023/03/16 12:07:51;;;;;;;7.95;3.97;;;6.70;99.90;;;;;;6249783;22;20027;-83
2023/03/16 12:10:22;;;;;;;9.00;4.55;;;6.80;99.90;;;;;;6249875;22;20019;-82
2023/03/16 12:13:11;;;;;;;9.18;5.03;;;6.90;99.90;;;;;;6249813;22;20020;-81
2023/03/16 12:16:12;;;;;;;7.10;3.97;;;7.00;99.90;;;;;;6277179;22;20016;-80
2023/03/16 12:18:50;;;;;;;8.18;3.95;;;7.10;99.90;;;;;;6249788;22;20019;-87
2023/03/16 12:21:38;;;;;;;7.90;4.40;;;7.20;99.90;;;;;;6251692;22;20016;-85
2023/03/16 12:24:18;;;;;;;9.00;4.53;;;7.20;99.90;;;;;;6249862;22;20094;-82
2023/03/16 12:26:44;;;;;;;8.50;4.13;;;7.30;99.90;;;;;;6249746;22;20023;-83
2023/03/16 12:29:41;;;;;;;8.60;4.60;;;7.50;99.90;;;;;;6249471;22;20321;-82
2023/03/16 12:32:45;;;;;;;8.25;4.60;;;7.50;99.90;;;;;;6249552;22;20371;-83
2023/03/16 12:35:32;;;;;;;8.52;4.68;;;7.50;99.90;;;;;;6174339;22;20030;-86
2023/03/16 12:38:20;;;;;;;9.88;4.18;;;7.60;99.90;;;;;;6277292;22;20099;-88
2023/03/16 12:41:09;;;;;;;11.63;5.13;;;7.60;99.90;;;;;;6250457;22;20090;-88
2023/03/16 12:43:41;;;;;;;6.55;3.65;;;7.70;99.90;;;;;;6249665;22;20027;-87
2023/03/16 12:46:36;;;;;;;9.73;4.55;;;7.80;99.90;;;;;;6249732;22;20012;-84
2023/03/16 12:49:05;;;;;;;9.48;5.13;;;7.90;99.90;;;;;;6249837;22;20024;-88
2023/03/16 12:51:44;;;;;;;7.22;4.47;;;8.00;99.90;;;;;;6277086;22;20011;-91
2023/03/16 12:54:21;;;;;;;8.10;4.20;;;8.10;99.90;;;;;;6277149;22;20023;-91
2023/03/16 12:56:49;;;;;;;10.82;4.50;;;8.10;99.90;;;;;;6249716;22;20039;-88
2023/03/16 12:59:18;;;;;;;11.00;4.35;;;8.10;99.90;;;;;;6276766;22;20023;-87
2023/03/16 13:01:52;;;;;;;7.63;3.97;;;8.00;99.90;;;;;;6249533;22;20020;-87
2023/03/16 13:04:22;;;;;;;8.13;4.13;;;8.00;99.90;;;;;;6249704;22;20065;-89
2023/03/16 13:06:59;;;;;;;10.77;4.30;;;8.00;99.90;;;;;;6276899;22;20336;-80
2023/03/16 13:09:27;;;;;;;7.85;4.18;;;8.00;99.90;;;;;;6277024;22;20065;-89